createdAt,value
2023-01-09T00:01:28.078Z,96262.19
2023-01-09T00:03:55.767Z,96261.94
2023-01-09T00:06:23.461Z,96256.38
2023-01-09T00:08:50.764Z,96249.06
2023-01-09T00:11:18.019Z,96253.50
2023-01-09T00:13:45.540Z,96248.41
2023-01-09T00:16:12.944Z,96241.59
2023-01-09T00:18:40.508Z,96239.25
2023-01-09T00:21:10.419Z,96234.81
2023-01-09T00:23:37.742Z,96237.38
2023-01-09T00:26:17.896Z,96243.63
2023-01-09T00:28:51.054Z,96231.59
2023-01-09T00:31:19.295Z,96226.31
2023-01-09T00:34:02.573Z,96213.56
2023-01-09T00:36:30.203Z,96219.09
2023-01-09T00:38:57.727Z,96213.34
2023-01-09T00:41:32.158Z,96221.97
2023-01-09T00:44:13.433Z,96218.56
2023-01-09T00:46:45.505Z,96207.31
2023-01-09T00:49:14.808Z,96218.31
2023-01-09T00:51:42.908Z,96216.50
2023-01-09T00:54:14.209Z,96201.03
2023-01-09T00:56:41.527Z,96213.31
2023-01-09T00:59:09.052Z,96215.69
2023-01-09T01:01:36.356Z,96211.50
2023-01-09T01:04:23.721Z,96211.53
2023-01-09T01:07:09.595Z,96216.75
2023-01-09T01:09:36.918Z,96226.19
2023-01-09T01:12:07.246Z,96212.03
2023-01-09T01:14:39.167Z,96212.53
2023-01-09T01:17:06.927Z,96224.06
2023-01-09T01:19:35.594Z,96230.38
2023-01-09T01:22:03.555Z,96226.69
2023-01-09T01:24:31.469Z,96221.19
2023-01-09T01:26:58.805Z,96220.16
2023-01-09T01:29:26.162Z,96223.28
2023-01-09T01:31:54.176Z,96235.63
2023-01-09T01:34:21.402Z,96239.59
2023-01-09T01:36:48.624Z,96233.03
2023-01-09T01:39:17.199Z,96236.69
2023-01-09T01:41:44.441Z,96232.72
2023-01-09T01:45:07.981Z,96234.78
2023-01-09T01:48:07.320Z,96226.41
2023-01-09T01:50:43.669Z,96230.16
2023-01-09T01:53:17.983Z,96236.28
2023-01-09T01:56:22.595Z,96227.72
2023-01-09T01:58:59.141Z,96222.78
2023-01-09T02:01:28.076Z,96235.19
2023-01-09T02:03:58.110Z,96229.22
2023-01-09T02:06:26.691Z,96223.19
2023-01-09T02:08:54.708Z,96213.63
2023-01-09T02:11:22.342Z,96207.09
2023-01-09T02:13:49.716Z,96189.28
2023-01-09T02:16:33.482Z,96189.22
2023-01-09T02:19:45.021Z,96178.97
2023-01-09T02:22:50.698Z,96177.91
2023-01-09T02:25:45.712Z,96179.78
2023-01-09T02:29:04.015Z,96166.53
2023-01-09T02:31:39.075Z,96167.53
2023-01-09T02:34:35.071Z,96154.25
2023-01-09T02:37:32.013Z,96160.28
2023-01-09T02:40:27.581Z,96154.91
2023-01-09T02:42:57.548Z,96154.56
2023-01-09T02:45:24.885Z,96133.72
2023-01-09T02:47:52.170Z,96145.75
2023-01-09T02:50:28.604Z,96142.13
2023-01-09T02:53:28.060Z,96148.38
2023-01-09T02:56:14.175Z,96124.91
2023-01-09T02:59:15.337Z,96135.63
2023-01-09T03:02:17.279Z,96130.66
2023-01-09T03:05:23.597Z,96131.34
2023-01-09T03:08:08.697Z,96116.00
2023-01-09T03:10:59.830Z,96100.78
2023-01-09T03:13:35.944Z,96097.91
2023-01-09T03:16:08.105Z,96078.34
2023-01-09T03:18:37.281Z,96061.53
2023-01-09T03:21:08.218Z,96066.25
2023-01-09T03:23:58.732Z,96066.13
2023-01-09T03:26:29.183Z,96063.66
2023-01-09T03:28:57.696Z,96053.03
2023-01-09T03:31:25.007Z,96056.78
2023-01-09T03:33:52.391Z,96065.66
2023-01-09T03:36:21.397Z,96053.13
2023-01-09T03:38:49.128Z,96052.38
2023-01-09T03:41:16.541Z,96055.31
2023-01-09T03:43:43.781Z,96060.97
2023-01-09T03:46:11.089Z,96049.56
2023-01-09T03:48:38.453Z,96038.13
2023-01-09T03:51:05.822Z,96040.97
2023-01-09T03:53:33.053Z,96044.38
2023-01-09T03:56:00.553Z,96047.41
2023-01-09T03:58:28.280Z,96023.94
2023-01-09T04:01:02.421Z,96013.00
2023-01-09T04:03:29.901Z,96006.66
2023-01-09T04:05:57.191Z,96003.06
2023-01-09T04:08:24.471Z,96009.81
2023-01-09T04:10:52.048Z,96007.97
2023-01-09T04:13:19.451Z,96011.69
2023-01-09T04:15:46.786Z,95997.50
2023-01-09T04:18:14.953Z,95995.91
2023-01-09T04:20:42.965Z,95982.84
2023-01-09T04:23:10.195Z,95976.78
2023-01-09T04:25:37.374Z,95977.78
2023-01-09T04:28:04.827Z,95967.09
2023-01-09T04:30:32.024Z,95972.53
2023-01-09T04:32:59.226Z,95973.28
2023-01-09T04:35:26.426Z,95971.84
2023-01-09T04:37:53.701Z,95968.59
2023-01-09T04:40:21.097Z,95967.00
2023-01-09T04:42:48.262Z,95978.06
2023-01-09T04:45:17.225Z,95973.25
2023-01-09T04:47:45.002Z,95967.00
2023-01-09T04:50:13.587Z,95959.13
2023-01-09T04:52:40.935Z,95972.38
2023-01-09T04:55:09.501Z,95961.66
2023-01-09T04:57:38.371Z,95955.31
2023-01-09T05:00:12.281Z,95948.06
2023-01-09T05:02:40.721Z,95935.22
2023-01-09T05:05:11.944Z,95935.63
2023-01-09T05:07:39.988Z,95935.69
2023-01-09T05:10:09.338Z,95930.38
2023-01-09T05:12:37.171Z,95939.19
2023-01-09T05:15:06.712Z,95943.00
2023-01-09T05:17:33.958Z,95943.47
2023-01-09T05:20:01.194Z,95939.28
2023-01-09T05:22:28.465Z,95945.84
2023-01-09T05:24:55.698Z,95928.91
2023-01-09T05:27:22.943Z,95939.84
2023-01-09T05:29:50.106Z,95924.00
2023-01-09T05:32:17.384Z,95916.63
2023-01-09T05:34:44.564Z,95923.16
2023-01-09T05:37:11.975Z,95925.41
2023-01-09T05:39:39.229Z,95937.25
2023-01-09T05:42:06.405Z,95928.72
2023-01-09T05:44:33.649Z,95936.53
2023-01-09T05:47:02.703Z,95922.88
2023-01-09T05:49:30.271Z,95923.97
2023-01-09T05:51:57.468Z,95927.66
2023-01-09T05:54:24.836Z,95924.56
2023-01-09T05:56:51.996Z,95938.47
2023-01-09T05:59:19.705Z,95931.09
2023-01-09T06:01:47.027Z,95924.00
2023-01-09T06:04:14.268Z,95930.28
2023-01-09T06:06:41.620Z,95930.97
2023-01-09T06:09:08.992Z,95934.88
2023-01-09T06:11:38.368Z,95939.06
2023-01-09T06:14:06.452Z,95943.97
2023-01-09T06:16:33.784Z,95942.19
2023-01-09T06:19:01.122Z,95947.53
2023-01-09T06:21:29.590Z,95938.09
2023-01-09T06:23:56.929Z,95930.97
2023-01-09T06:26:26.072Z,95935.25
2023-01-09T06:28:55.873Z,95927.66
2023-01-09T06:31:25.189Z,95928.84
2023-01-09T06:33:52.864Z,95909.69
2023-01-09T06:36:22.445Z,95914.41
2023-01-09T06:38:49.857Z,95925.50
2023-01-09T06:41:17.397Z,95914.16
2023-01-09T06:43:45.212Z,95911.59
2023-01-09T06:46:12.623Z,95904.28
2023-01-09T06:48:39.861Z,95893.44
2023-01-09T06:51:07.143Z,95907.13
2023-01-09T06:53:35.206Z,95911.31
2023-01-09T06:56:02.931Z,95920.59
2023-01-09T06:58:30.083Z,95913.59
2023-01-09T07:00:59.792Z,95931.94
2023-01-09T07:03:27.160Z,95925.28
2023-01-09T07:05:54.530Z,95918.25
2023-01-09T07:08:22.019Z,95924.22
2023-01-09T07:10:49.301Z,95930.34
2023-01-09T07:13:16.573Z,95933.00
2023-01-09T07:15:43.834Z,95929.38
2023-01-09T07:18:11.174Z,95927.13
2023-01-09T07:20:42.160Z,95939.91
2023-01-09T07:23:13.435Z,95938.31
2023-01-09T07:25:45.094Z,95925.22
2023-01-09T07:28:12.443Z,95924.31
2023-01-09T07:30:39.688Z,95918.03
2023-01-09T07:33:06.927Z,95925.31
2023-01-09T07:35:34.637Z,95923.81
2023-01-09T07:38:01.967Z,95912.28
2023-01-09T07:40:29.405Z,95937.81
2023-01-09T07:42:56.658Z,95925.63
2023-01-09T07:45:23.907Z,95920.75
2023-01-09T07:47:52.411Z,95912.34
2023-01-09T07:50:20.609Z,95915.50
2023-01-09T07:52:48.390Z,95909.78
2023-01-09T07:55:17.453Z,95901.44
2023-01-09T07:57:50.290Z,95902.19
2023-01-09T08:00:18.986Z,95900.94
2023-01-09T08:02:46.163Z,95900.03
2023-01-09T08:05:15.863Z,95900.00
2023-01-09T08:07:43.469Z,95895.19
2023-01-09T08:10:11.953Z,95898.59
2023-01-09T08:12:43.575Z,95901.09
2023-01-09T08:15:12.105Z,95901.13
2023-01-09T08:17:44.834Z,95905.28
2023-01-09T08:20:15.047Z,95902.00
2023-01-09T08:22:43.943Z,95911.03
2023-01-09T08:25:12.610Z,95910.66
2023-01-09T08:27:40.468Z,95920.78
2023-01-09T08:30:09.915Z,95915.44
2023-01-09T08:32:37.848Z,95916.06
2023-01-09T08:35:06.026Z,95925.41
2023-01-09T08:37:33.331Z,95931.75
2023-01-09T08:40:00.596Z,95929.09
2023-01-09T08:42:46.591Z,95914.63
2023-01-09T08:45:32.605Z,95926.72
2023-01-09T08:48:00.011Z,95917.91
2023-01-09T08:50:27.286Z,95924.44
2023-01-09T08:52:54.430Z,95925.03
2023-01-09T08:55:21.729Z,95936.44
2023-01-09T08:57:54.234Z,95935.75
2023-01-09T09:00:24.440Z,95921.75
2023-01-09T09:02:59.860Z,95928.34
2023-01-09T09:05:30.316Z,95935.84
2023-01-09T09:07:58.471Z,95936.13
2023-01-09T09:10:30.538Z,95928.38
2023-01-09T09:12:59.771Z,95934.47
2023-01-09T09:15:28.612Z,95924.28
2023-01-09T09:18:02.592Z,95928.88
2023-01-09T09:20:36.343Z,95916.50
2023-01-09T09:23:04.559Z,95915.25
2023-01-09T09:25:32.513Z,95914.03
2023-01-09T09:28:01.292Z,95908.34
2023-01-09T09:30:28.760Z,95918.16
2023-01-09T09:32:56.402Z,95919.63
2023-01-09T09:35:23.772Z,95916.81
2023-01-09T09:38:05.349Z,95908.31
2023-01-09T09:41:08.060Z,95892.50
2023-01-09T09:44:13.310Z,95899.66
2023-01-09T09:46:53.162Z,95887.06
2023-01-09T09:49:54.071Z,95900.25
2023-01-09T09:52:34.735Z,95894.84
2023-01-09T09:55:15.116Z,95892.78
2023-01-09T09:57:44.061Z,95890.41
2023-01-09T10:00:19.877Z,95886.94
2023-01-09T10:03:23.216Z,95881.25
2023-01-09T10:05:55.006Z,95873.09
2023-01-09T10:08:49.933Z,95882.53
2023-01-09T10:11:55.481Z,95883.28
2023-01-09T10:14:24.760Z,95892.69
2023-01-09T10:16:58.327Z,95891.94
2023-01-09T10:19:40.500Z,95890.41
2023-01-09T10:22:39.547Z,95888.41
2023-01-09T10:25:42.814Z,95894.66
2023-01-09T10:28:53.485Z,95893.69
2023-01-09T10:32:10.366Z,95893.53
2023-01-09T10:35:15.135Z,95897.50
2023-01-09T10:37:46.705Z,95891.41
2023-01-09T10:40:26.872Z,95886.91
2023-01-09T10:43:05.244Z,95885.91
2023-01-09T10:45:41.606Z,95894.34
2023-01-09T10:48:28.063Z,95888.25
2023-01-09T10:50:57.011Z,95888.75
2023-01-09T10:53:35.403Z,95889.06
2023-01-09T10:56:24.554Z,95891.41
2023-01-09T10:58:54.465Z,95895.59
2023-01-09T11:01:39.509Z,95904.13
2023-01-09T11:04:34.608Z,95910.22
2023-01-09T11:07:26.295Z,95899.03
2023-01-09T11:10:15.846Z,95914.09
2023-01-09T11:12:43.407Z,95911.53
2023-01-09T11:15:29.183Z,95918.19
2023-01-09T11:18:21.517Z,95912.19
2023-01-09T11:20:49.156Z,95914.56
2023-01-09T11:23:32.429Z,95916.91
2023-01-09T11:26:03.169Z,95915.28
2023-01-09T11:28:30.977Z,95917.31
2023-01-09T11:31:02.363Z,95910.22
2023-01-09T11:33:36.150Z,95904.72
2023-01-09T11:36:10.816Z,95906.41
2023-01-09T11:38:57.032Z,95902.38
2023-01-09T11:41:35.263Z,95913.75
2023-01-09T11:44:04.993Z,95905.28
2023-01-09T11:46:41.965Z,95907.66
2023-01-09T11:49:15.379Z,95914.16
2023-01-09T11:51:44.007Z,95906.84
2023-01-09T11:54:30.900Z,95911.22
2023-01-09T11:56:58.281Z,95913.06
2023-01-09T11:59:29.159Z,95915.06
2023-01-09T12:02:34.656Z,95916.41
2023-01-09T12:05:13.110Z,95907.34
2023-01-09T12:08:14.252Z,95914.16
2023-01-09T12:10:56.778Z,95906.69
2023-01-09T12:14:06.607Z,95910.13
2023-01-09T12:16:46.230Z,95918.94
2023-01-09T12:19:28.290Z,95918.00
2023-01-09T12:22:07.982Z,95920.88
2023-01-09T12:25:14.788Z,95916.28
2023-01-09T12:28:22.347Z,95906.22
2023-01-09T12:31:18.235Z,95900.69
2023-01-09T12:34:12.559Z,95890.38
2023-01-09T12:36:49.455Z,95892.81
2023-01-09T12:39:47.339Z,95889.00
2023-01-09T12:42:24.135Z,95886.34
2023-01-09T12:45:03.373Z,95894.69
2023-01-09T12:47:46.031Z,95890.22
2023-01-09T12:50:48.213Z,95892.50
2023-01-09T12:53:27.381Z,95893.16
2023-01-09T12:56:15.999Z,95907.34
2023-01-09T12:59:07.121Z,95905.34
2023-01-09T13:01:43.609Z,95922.06
2023-01-09T13:04:17.004Z,95934.97
2023-01-09T13:06:58.163Z,95938.94
2023-01-09T13:09:39.976Z,95943.16
2023-01-09T13:12:21.469Z,95936.50
2023-01-09T13:15:19.508Z,95946.16
2023-01-09T13:17:56.132Z,95942.91
2023-01-09T13:20:44.722Z,95941.06
2023-01-09T13:23:50.939Z,95937.97
2023-01-09T13:26:43.963Z,95928.97
2023-01-09T13:29:25.208Z,95932.94
2023-01-09T13:32:22.014Z,95940.31
2023-01-09T13:34:54.909Z,95939.03
2023-01-09T13:37:30.684Z,95948.69
2023-01-09T13:40:02.297Z,95953.41
2023-01-09T13:42:36.193Z,95950.59
2023-01-09T13:45:25.574Z,95964.13
2023-01-09T13:48:11.866Z,95987.63
2023-01-09T13:50:40.801Z,95989.75
2023-01-09T13:53:20.006Z,95988.59
2023-01-09T13:55:59.944Z,95990.66
2023-01-09T13:58:37.674Z,95997.09
2023-01-09T14:01:22.793Z,96017.91
2023-01-09T14:04:15.070Z,96025.50
2023-01-09T14:06:45.062Z,96029.63
2023-01-09T14:09:22.788Z,96028.75
2023-01-09T14:12:06.365Z,96021.78
2023-01-09T14:14:35.126Z,96018.66
2023-01-09T14:17:03.573Z,96015.06
2023-01-09T14:19:38.771Z,96017.31
2023-01-09T14:22:08.028Z,96029.50
2023-01-09T14:24:47.232Z,96034.03
2023-01-09T14:27:55.848Z,96028.22
2023-01-09T14:31:08.883Z,96029.19
2023-01-09T14:33:36.476Z,96035.66
2023-01-09T14:36:19.683Z,96028.28
2023-01-09T14:39:05.774Z,96036.59
2023-01-09T14:42:06.480Z,96028.16
2023-01-09T14:44:50.925Z,96032.78
2023-01-09T14:47:48.638Z,96032.97
2023-01-09T14:50:46.659Z,96039.81
2023-01-09T14:53:18.778Z,96046.22
2023-01-09T14:55:55.393Z,96052.28
2023-01-09T14:58:33.146Z,96041.19
2023-01-09T15:01:23.024Z,96037.09
2023-01-09T15:03:59.029Z,96035.50
2023-01-09T15:06:32.814Z,96042.31
2023-01-09T15:09:09.065Z,96044.38
2023-01-09T15:11:39.945Z,96040.91
2023-01-09T15:14:10.235Z,96041.91
2023-01-09T15:16:37.587Z,96047.19
2023-01-09T15:19:08.938Z,96041.16
2023-01-09T15:21:36.282Z,96046.03
2023-01-09T15:24:27.181Z,96041.34
2023-01-09T15:27:19.153Z,96042.53
2023-01-09T15:29:46.492Z,96043.75
2023-01-09T15:32:28.980Z,96059.75
2023-01-09T15:34:57.620Z,96061.75
2023-01-09T15:37:39.145Z,96070.91
2023-01-09T15:40:22.928Z,96079.97
2023-01-09T15:42:57.284Z,96088.03
2023-01-09T15:45:39.575Z,96098.28
2023-01-09T15:48:18.755Z,96103.03
2023-01-09T15:50:48.850Z,96095.78
2023-01-09T15:53:20.905Z,96097.13
2023-01-09T15:56:16.329Z,96096.97
2023-01-09T15:58:47.303Z,96092.44
2023-01-09T16:01:35.632Z,96088.81
2023-01-09T16:04:13.611Z,96096.78
2023-01-09T16:06:52.795Z,96092.28
2023-01-09T16:09:31.038Z,96089.03
2023-01-09T16:12:02.207Z,96098.06
2023-01-09T16:14:39.988Z,96101.09
2023-01-09T16:17:15.884Z,96101.59
2023-01-09T16:19:51.948Z,96100.47
2023-01-09T16:22:29.180Z,96092.22
2023-01-09T16:25:03.530Z,96086.50
2023-01-09T16:27:34.295Z,96087.94
2023-01-09T16:30:05.730Z,96103.28
2023-01-09T16:32:52.664Z,96098.97
2023-01-09T16:35:24.724Z,96099.31
2023-01-09T16:37:51.963Z,96106.38
2023-01-09T16:40:22.106Z,96101.28
2023-01-09T16:43:01.203Z,96094.69
2023-01-09T16:45:36.428Z,96099.53
2023-01-09T16:48:15.299Z,96102.31
2023-01-09T16:50:44.530Z,96104.97
2023-01-09T16:53:27.143Z,96116.91
2023-01-09T16:55:55.081Z,96119.53
2023-01-09T16:58:31.297Z,96133.19
2023-01-09T17:00:59.608Z,96128.41
2023-01-09T17:03:26.860Z,96139.78
2023-01-09T17:05:59.983Z,96137.28
2023-01-09T17:08:34.804Z,96137.50
2023-01-09T17:11:04.066Z,96140.69
2023-01-09T17:13:31.426Z,96135.94
2023-01-09T17:15:59.945Z,96136.28
2023-01-09T17:18:29.632Z,96147.69
2023-01-09T17:20:59.357Z,96146.34
2023-01-09T17:23:26.801Z,96153.34
2023-01-09T17:26:16.912Z,96150.38
2023-01-09T17:28:49.645Z,96147.81
2023-01-09T17:31:17.833Z,96152.34
2023-01-09T17:33:45.087Z,96158.72
2023-01-09T17:36:32.580Z,96148.88
2023-01-09T17:39:00.569Z,96155.09
2023-01-09T17:41:31.779Z,96148.88
2023-01-09T17:44:00.339Z,96157.16
2023-01-09T17:46:34.035Z,96144.50
2023-01-09T17:49:02.139Z,96147.19
2023-01-09T17:51:30.115Z,96150.06
2023-01-09T17:53:57.860Z,96146.09
2023-01-09T17:56:32.477Z,96148.56
2023-01-09T17:59:00.008Z,96152.31
2023-01-09T18:01:27.419Z,96146.47
2023-01-09T18:03:54.912Z,96159.94
2023-01-09T18:06:22.715Z,96162.41
2023-01-09T18:08:50.375Z,96161.94
2023-01-09T18:11:23.600Z,96166.81
2023-01-09T18:13:56.404Z,96168.53
2023-01-09T18:16:27.040Z,96177.28
2023-01-09T18:18:57.924Z,96177.53
2023-01-09T18:21:27.552Z,96191.16
2023-01-09T18:23:56.202Z,96185.44
2023-01-09T18:26:23.849Z,96191.72
2023-01-09T18:28:57.828Z,96192.81
2023-01-09T18:31:27.959Z,96199.13
2023-01-09T18:33:57.966Z,96201.22
2023-01-09T18:36:30.986Z,96197.56
2023-01-09T18:39:00.853Z,96194.47
2023-01-09T18:41:29.191Z,96197.47
2023-01-09T18:44:01.386Z,96195.09
2023-01-09T18:46:32.477Z,96194.09
2023-01-09T18:49:03.091Z,96190.41
2023-01-09T18:51:32.637Z,96191.97
2023-01-09T18:54:00.160Z,96200.25
2023-01-09T18:56:27.618Z,96203.28
2023-01-09T18:58:57.296Z,96204.16
2023-01-09T19:01:25.940Z,96205.50
2023-01-09T19:03:53.592Z,96203.66
2023-01-09T19:06:20.955Z,96205.03
2023-01-09T19:08:48.384Z,96207.72
2023-01-09T19:11:16.043Z,96209.97
2023-01-09T19:13:43.729Z,96209.63
2023-01-09T19:16:11.697Z,96207.06
2023-01-09T19:18:41.825Z,96210.16
2023-01-09T19:21:17.715Z,96211.81
2023-01-09T19:23:46.627Z,96223.44
2023-01-09T19:26:23.706Z,96212.81
2023-01-09T19:28:51.999Z,96215.13
2023-01-09T19:31:19.377Z,96213.88
2023-01-09T19:33:46.662Z,96212.59
2023-01-09T19:36:14.097Z,96214.13
2023-01-09T19:38:41.451Z,96214.13
2023-01-09T19:41:14.239Z,96209.41
2023-01-09T19:43:42.429Z,96210.22
2023-01-09T19:46:14.090Z,96213.88
2023-01-09T19:48:43.183Z,96217.34
2023-01-09T19:51:11.787Z,96220.78
2023-01-09T19:53:39.480Z,96216.50
2023-01-09T19:56:20.663Z,96218.19
2023-01-09T19:58:54.948Z,96216.31
2023-01-09T20:01:29.873Z,96221.53
2023-01-09T20:04:02.974Z,96218.91
2023-01-09T20:06:31.446Z,96217.09
2023-01-09T20:09:02.576Z,96223.44
2023-01-09T20:11:32.406Z,96223.13
2023-01-09T20:13:59.931Z,96214.81
2023-01-09T20:16:30.541Z,96219.03
2023-01-09T20:19:02.682Z,96221.44
2023-01-09T20:21:30.475Z,96226.94
2023-01-09T20:24:00.788Z,96225.06
2023-01-09T20:26:29.303Z,96232.97
2023-01-09T20:28:57.303Z,96238.53
2023-01-09T20:31:31.336Z,96236.72
2023-01-09T20:33:59.929Z,96240.06
2023-01-09T20:36:30.287Z,96239.25
2023-01-09T20:39:03.620Z,96238.25
2023-01-09T20:41:31.532Z,96243.25
2023-01-09T20:44:02.872Z,96249.03
2023-01-09T20:46:33.744Z,96253.22
2023-01-09T20:49:06.590Z,96243.25
2023-01-09T20:51:37.023Z,96246.84
2023-01-09T20:54:04.580Z,96254.25
2023-01-09T20:56:32.865Z,96256.97
2023-01-09T20:59:00.958Z,96249.69
2023-01-09T21:01:28.651Z,96255.25
2023-01-09T21:03:57.266Z,96252.69
2023-01-09T21:06:26.222Z,96256.69
2023-01-09T21:08:53.793Z,96254.28
2023-01-09T21:11:22.280Z,96261.16
2023-01-09T21:13:50.914Z,96260.91
2023-01-09T21:16:21.834Z,96261.16
2023-01-09T21:18:49.604Z,96255.91
2023-01-09T21:21:20.637Z,96262.50
2023-01-09T21:23:54.728Z,96269.56
2023-01-09T21:26:27.520Z,96269.25
2023-01-09T21:28:57.572Z,96278.47
2023-01-09T21:31:35.375Z,96278.53
2023-01-09T21:34:07.144Z,96281.66
2023-01-09T21:36:35.543Z,96280.03
2023-01-09T21:39:07.445Z,96282.69
2023-01-09T21:41:54.117Z,96287.84
2023-01-09T21:44:40.459Z,96291.28
2023-01-09T21:47:07.960Z,96299.19
2023-01-09T21:49:36.179Z,96302.81
2023-01-09T21:52:04.762Z,96315.72
2023-01-09T21:54:32.621Z,96309.13
2023-01-09T21:57:00.873Z,96316.00
2023-01-09T21:59:32.005Z,96316.47
2023-01-09T22:01:59.790Z,96315.22
2023-01-09T22:04:29.355Z,96314.97
2023-01-09T22:06:57.014Z,96316.81
2023-01-09T22:09:24.413Z,96322.06
2023-01-09T22:11:51.761Z,96326.22
2023-01-09T22:14:20.631Z,96327.53
2023-01-09T22:16:48.250Z,96322.25
2023-01-09T22:19:19.617Z,96328.06
2023-01-09T22:21:47.156Z,96328.06
2023-01-09T22:24:17.502Z,96334.06
2023-01-09T22:26:45.433Z,96334.06
2023-01-09T22:29:12.726Z,96328.50
2023-01-09T22:31:40.873Z,96332.94
2023-01-09T22:34:13.800Z,96328.81
2023-01-09T22:36:41.416Z,96331.97
2023-01-09T22:39:11.993Z,96340.66
2023-01-09T22:41:39.310Z,96342.50
2023-01-09T22:44:06.595Z,96347.69
2023-01-09T22:46:34.336Z,96348.25
2023-01-09T22:49:02.890Z,96352.47
2023-01-09T22:51:33.748Z,96356.66
2023-01-09T22:54:01.345Z,96354.28
2023-01-09T22:56:29.046Z,96357.63
2023-01-09T22:58:59.169Z,96365.50
2023-01-09T23:01:26.760Z,96361.34
2023-01-09T23:03:54.111Z,96361.91
2023-01-09T23:06:23.227Z,96360.25
2023-01-09T23:08:52.869Z,96362.38
2023-01-09T23:11:48.571Z,96370.78
2023-01-09T23:14:16.252Z,96357.34
2023-01-09T23:16:43.967Z,96362.66
2023-01-09T23:19:17.431Z,96367.94
2023-01-09T23:21:45.811Z,96375.78
2023-01-09T23:24:15.632Z,96378.66
2023-01-09T23:26:43.990Z,96369.78
2023-01-09T23:29:12.226Z,96370.03
2023-01-09T23:31:39.545Z,96373.97
2023-01-09T23:34:08.315Z,96376.13
2023-01-09T23:36:36.278Z,96381.63
2023-01-09T23:39:08.772Z,96384.53
2023-01-09T23:41:58.445Z,96385.03
2023-01-09T23:44:26.479Z,96397.59
2023-01-09T23:46:53.979Z,96396.56
2023-01-09T23:49:21.586Z,96389.78
2023-01-09T23:51:49.147Z,96397.91
2023-01-09T23:54:17.328Z,96402.09
2023-01-09T23:56:44.837Z,96398.97
2023-01-09T23:59:14.451Z,96401.63
